Time;durP1;ratioP1;P1;durP2;ratioP2;P2;SDS_P1;SDS_P2;PMS_P1;PMS_P2;Temp;Humidity;BMP_temperature;BMP_pressure;BME280_temperature;BME280_humidity;BME280_pressure;Samples;Min_cycle;Max_cycle;Signal;HPM_P1;HPM_P2
2024/01/06 00:01:17;;;;;;;67.70;60.80;;;;;;;-0.16;100.00;96832.58;106247;1276;22675;-75
2024/01/06 00:03:45;;;;;;;66.20;59.50;;;;;;;-0.13;100.00;96825.66;106285;1261;24221;-75
2024/01/06 00:06:14;;;;;;;73.50;66.30;;;;;;;-0.10;100.00;96826.30;106543;1283;24544;-75
2024/01/06 00:08:42;;;;;;;81.50;69.30;;;;;;;-0.07;100.00;96821.69;106352;1273;25392;-75
2024/01/06 00:11:10;;;;;;;74.00;66.30;;;;;;;-0.04;100.00;96825.29;106264;1283;24776;-75
2024/01/06 00:13:38;;;;;;;71.50;64.30;;;;;;;-0.04;100.00;96827.88;106293;1267;22546;-75
2024/01/06 00:16:06;;;;;;;73.90;65.50;;;;;;;0.02;100.00;96827.17;106435;1276;24221;-76
2024/01/06 00:18:34;;;;;;;70.50;62.90;;;;;;;0.04;100.00;96823.69;106468;1282;24324;-76
2024/01/06 00:21:02;;;;;;;68.60;61.30;;;;;;;0.06;100.00;96825.13;106503;1276;24066;-76
2024/01/06 00:23:30;;;;;;;65.80;59.30;;;;;;;0.13;100.00;96826.22;106577;1283;25514;-76
2024/01/06 00:25:58;;;;;;;68.60;61.60;;;;;;;0.15;100.00;96821.80;107079;1268;22557;-76
2024/01/06 00:28:26;;;;;;;70.10;63.20;;;;;;;0.15;100.00;96817.29;106690;1277;22662;-76
2024/01/06 00:30:54;;;;;;;75.80;68.30;;;;;;;0.16;100.00;96808.05;106220;1268;22878;-77
2024/01/06 00:33:22;;;;;;;67.50;60.80;;;;;;;0.16;100.00;96800.55;106960;1260;24230;-75
2024/01/06 00:35:50;;;;;;;66.90;60.40;;;;;;;0.17;100.00;96801.02;106881;1283;22550;-77
2024/01/06 00:38:20;;;;;;;63.00;57.00;;;;;;;0.21;100.00;96792.45;106762;1282;22643;-77
2024/01/06 00:40:48;;;;;;;59.80;54.00;;;;;;;0.24;100.00;96787.33;106817;1275;22533;-77
2024/01/06 00:43:16;;;;;;;65.00;58.70;;;;;;;0.28;100.00;96795.45;106694;1283;25664;-77
2024/01/06 00:45:44;;;;;;;63.30;57.30;;;;;;;0.28;100.00;96792.21;106336;1282;22647;-78
2024/01/06 00:48:12;;;;;;;64.30;58.20;;;;;;;0.27;100.00;96797.84;106632;1283;22555;-76
2024/01/06 00:50:40;;;;;;;61.90;56.00;;;;;;;0.23;100.00;96790.14;106238;1269;22670;-75
2024/01/06 00:53:08;;;;;;;57.70;52.40;;;;;;;0.21;100.00;96799.08;106286;1272;26684;-76
2024/01/06 00:55:36;;;;;;;57.60;52.30;;;;;;;0.21;100.00;96796.34;106394;1282;22554;-77
2024/01/06 00:58:04;;;;;;;59.90;54.00;;;;;;;0.22;100.00;96802.42;106608;1283;22551;-76
2024/01/06 01:00:31;;;;;;;64.50;58.40;;;;;;;0.23;100.00;96801.83;106759;1267;22678;-76
2024/01/06 01:02:59;;;;;;;63.30;57.40;;;;;;;0.23;100.00;96801.47;106226;1270;23346;-75
2024/01/06 01:05:27;;;;;;;63.70;57.70;;;;;;;0.23;100.00;96796.81;106196;1269;25370;-77
2024/01/06 01:07:55;;;;;;;60.70;54.90;;;;;;;0.26;100.00;96799.31;106297;1276;22557;-77
2024/01/06 01:10:23;;;;;;;60.00;54.30;;;;;;;0.31;100.00;96791.16;106293;1275;22642;-76
2024/01/06 01:12:51;;;;;;;60.80;55.00;;;;;;;0.36;100.00;96800.20;106398;1271;22786;-74
2024/01/06 01:15:19;;;;;;;58.90;53.30;;;;;;;0.39;100.00;96805.14;106272;1260;22556;-75
2024/01/06 01:17:47;;;;;;;60.10;54.20;;;;;;;0.41;100.00;96808.90;106354;1283;25551;-75
2024/01/06 01:20:15;;;;;;;62.00;56.00;;;;;;;0.43;100.00;96810.77;106308;1276;24683;-76
2024/01/06 01:22:43;;;;;;;59.80;54.00;;;;;;;0.43;100.00;96805.30;106630;1276;22849;-76
2024/01/06 01:25:12;;;;;;;57.90;52.30;;;;;;;0.46;100.00;96799.39;106321;1280;25515;-78
2024/01/06 01:27:40;;;;;;;57.80;52.40;;;;;;;0.60;100.00;96797.61;106311;1283;22752;-78
2024/01/06 01:30:09;;;;;;;56.20;50.50;;;;;;;0.69;100.00;96803.15;106255;1271;24256;-77
2024/01/06 01:32:37;;;;;;;57.70;51.90;;;;;;;0.73;100.00;96802.70;106279;1283;22549;-77
2024/01/06 01:35:06;;;;;;;59.10;53.40;;;;;;;0.75;100.00;96807.56;106270;1280;22546;-76
2024/01/06 01:37:34;;;;;;;61.60;55.80;;;;;;;0.74;100.00;96814.46;106282;1268;25297;-77
2024/01/06 01:40:02;;;;;;;58.30;52.70;;;;;;;0.68;100.00;96816.98;106606;1277;22658;-78
2024/01/06 01:42:30;;;;;;;56.90;51.40;;;;;;;0.67;100.00;96813.80;106666;1277;22574;-78
2024/01/06 01:44:58;;;;;;;56.70;51.30;;;;;;;0.70;100.00;96814.93;106268;1283;22634;-76
2024/01/06 01:47:26;;;;;;;57.20;51.60;;;;;;;0.74;100.00;96820.88;106304;1271;22558;-77
2024/01/06 01:49:56;;;;;;;61.00;55.20;;;;;;;0.75;100.00;96817.17;106239;1283;23164;-76
2024/01/06 01:52:24;;;;;;;59.60;54.00;;;;;;;0.77;100.00;96813.88;106427;1277;25416;-77
2024/01/06 01:54:52;;;;;;;61.50;55.80;;;;;;;0.81;100.00;96810.44;106387;1283;24080;-77
2024/01/06 01:57:23;;;;;;;62.70;56.70;;;;;;;0.84;100.00;96811.29;106278;1276;25425;-78
2024/01/06 01:59:53;;;;;;;56.40;50.90;;;;;;;0.79;100.00;96806.45;106511;1283;23203;-77
2024/01/06 02:02:22;;;;;;;56.80;51.20;;;;;;;0.73;100.00;96807.52;106299;1270;24293;-77
2024/01/06 02:04:50;;;;;;;57.00;51.00;;;;;;;0.75;100.00;96802.38;106304;1283;25538;-76
2024/01/06 02:07:18;;;;;;;58.30;52.60;;;;;;;0.80;100.00;96799.94;106281;1283;25397;-76
2024/01/06 02:09:46;;;;;;;55.90;50.40;;;;;;;0.83;100.00;96802.29;106292;1277;22617;-78
2024/01/06 02:12:14;;;;;;;57.00;51.50;;;;;;;0.85;100.00;96800.06;106728;1271;23206;-76
2024/01/06 02:14:43;;;;;;;57.30;51.90;;;;;;;0.85;100.00;96793.54;106367;1283;22542;-79
2024/01/06 02:17:11;;;;;;;63.80;57.60;;;;;;;0.85;100.00;96799.05;106646;1273;22661;-75
2024/01/06 02:19:39;;;;;;;63.10;56.90;;;;;;;0.83;100.00;96793.38;106383;1268;22553;-76
2024/01/06 02:22:07;;;;;;;63.90;57.60;;;;;;;0.83;100.00;96796.71;106422;1270;22559;-76
2024/01/06 02:24:35;;;;;;;64.10;57.80;;;;;;;0.84;100.00;96797.40;106214;1268;22557;-75
2024/01/06 02:27:03;;;;;;;64.00;57.70;;;;;;;0.85;100.00;96800.80;106265;1270;24260;-76
2024/01/06 02:29:31;;;;;;;65.00;58.90;;;;;;;0.91;100.00;96800.92;106239;1283;23505;-74
2024/01/06 02:31:59;;;;;;;64.60;58.30;;;;;;;0.95;100.00;96805.54;106283;1270;24267;-76
2024/01/06 02:34:27;;;;;;;64.70;58.20;;;;;;;0.93;100.00;96805.36;106249;1270;25403;-76
2024/01/06 02:36:55;;;;;;;59.20;53.50;;;;;;;0.86;100.00;96806.64;106373;1271;24596;-75
2024/01/06 02:39:23;;;;;;;60.30;54.50;;;;;;;0.79;100.00;96801.84;106333;1270;22568;-77
2024/01/06 02:42:17;;;;;;;60.30;54.30;;;;;;;0.76;100.00;96803.16;106388;1283;22552;-77
2024/01/06 02:44:45;;;;;;;60.00;54.20;;;;;;;0.74;100.00;96800.41;106352;1283;22559;-76
2024/01/06 02:47:13;;;;;;;64.50;58.20;;;;;;;0.74;100.00;96794.21;106312;1266;22564;-78
2024/01/06 02:49:41;;;;;;;69.20;62.60;;;;;;;0.75;100.00;96787.58;106301;1273;22536;-76
2024/01/06 02:52:09;;;;;;;65.70;59.20;;;;;;;0.74;100.00;96784.51;106259;1276;23941;-76
2024/01/06 02:54:37;;;;;;;65.60;59.20;;;;;;;0.72;100.00;96777.13;106171;1283;22842;-75
2024/01/06 02:57:05;;;;;;;64.50;58.40;;;;;;;0.65;100.00;96773.09;106279;1268;24257;-76
2024/01/06 02:59:34;;;;;;;65.80;59.50;;;;;;;0.65;100.00;96774.15;106251;1276;25333;-76
2024/01/06 03:02:02;;;;;;;71.70;64.00;;;;;;;0.67;100.00;96778.97;106301;1274;23126;-77
2024/01/06 03:04:30;;;;;;;69.20;62.20;;;;;;;0.65;100.00;96781.61;106204;1271;22576;-76
2024/01/06 03:06:58;;;;;;;72.20;64.70;;;;;;;0.63;100.00;96783.46;106271;1277;24235;-76
2024/01/06 03:09:26;;;;;;;75.10;67.40;;;;;;;0.57;100.00;96789.71;106278;1270;25515;-76
2024/01/06 03:11:54;;;;;;;78.40;70.30;;;;;;;0.52;100.00;96791.39;106259;1273;25397;-77
2024/01/06 03:14:22;;;;;;;73.20;65.40;;;;;;;0.47;100.00;96789.52;106315;1270;24191;-78
2024/01/06 03:16:50;;;;;;;70.90;63.60;;;;;;;0.40;100.00;96782.35;106271;1267;22568;-77
2024/01/06 03:19:18;;;;;;;73.30;65.80;;;;;;;0.37;100.00;96777.63;106274;1271;25430;-79
2024/01/06 03:21:46;;;;;;;81.60;72.90;;;;;;;0.39;100.00;96779.87;106519;1277;25267;-77
2024/01/06 03:24:14;;;;;;;80.30;72.00;;;;;;;0.42;100.00;96772.73;106268;1270;25277;-77
2024/01/06 03:26:42;;;;;;;80.50;71.60;;;;;;;0.46;100.00;96769.02;106234;1272;25361;-78
2024/01/06 03:29:10;;;;;;;88.70;72.90;;;;;;;0.45;100.00;96765.66;106134;1270;22585;-77
2024/01/06 03:31:38;;;;;;;72.40;65.00;;;;;;;0.35;100.00;96769.14;106262;1273;22557;-78
2024/01/06 03:34:08;;;;;;;71.50;63.80;;;;;;;0.23;100.00;96772.66;106578;1273;22648;-78
2024/01/06 03:36:37;;;;;;;73.60;66.10;;;;;;;0.10;100.00;96766.25;106627;1271;24037;-79
2024/01/06 03:39:06;;;;;;;74.20;66.60;;;;;;;0.00;100.00;96761.91;106737;1273;24383;-78
2024/01/06 03:41:34;;;;;;;70.90;63.70;;;;;;;-0.01;100.00;96765.35;106635;1274;25518;-77
2024/01/06 03:44:02;;;;;;;69.00;61.70;;;;;;;0.02;100.00;96763.77;106275;1270;25397;-78
2024/01/06 03:46:30;;;;;;;73.70;66.50;;;;;;;0.07;100.00;96765.11;106223;1273;23026;-76
2024/01/06 03:48:58;;;;;;;78.60;70.10;;;;;;;0.13;100.00;96769.38;106376;1272;22623;-77
2024/01/06 03:51:26;;;;;;;80.70;72.40;;;;;;;0.11;100.00;96776.85;106345;1283;22658;-77
2024/01/06 03:53:54;;;;;;;79.50;71.40;;;;;;;0.10;100.00;96776.58;106225;1283;22543;-76
2024/01/06 03:56:22;;;;;;;80.20;71.80;;;;;;;0.13;100.00;96779.43;106234;1277;24461;-76
2024/01/06 03:58:50;;;;;;;71.50;64.40;;;;;;;0.16;100.00;96778.24;106285;1271;22547;-76
2024/01/06 04:01:18;;;;;;;69.80;63.00;;;;;;;0.20;100.00;96773.64;106694;1270;25328;-76
2024/01/06 04:03:46;;;;;;;69.50;62.60;;;;;;;0.22;100.00;96769.89;106670;1275;24230;-76
2024/01/06 04:06:14;;;;;;;74.20;66.70;;;;;;;0.25;100.00;96768.15;106194;1283;25279;-76
2024/01/06 04:08:42;;;;;;;78.90;70.30;;;;;;;0.27;100.00;96765.45;106305;1274;25577;-76
2024/01/06 04:11:09;;;;;;;77.20;69.20;;;;;;;0.31;100.00;96763.81;106290;1283;24245;-77
2024/01/06 04:13:42;;;;;;;73.30;65.90;;;;;;;0.32;100.00;96766.52;106253;1270;22631;-76
2024/01/06 04:16:10;;;;;;;73.10;65.80;;;;;;;0.35;100.00;96768.65;106657;1276;25069;-74
2024/01/06 04:18:38;;;;;;;72.90;65.50;;;;;;;0.43;100.00;96767.73;106243;1272;22793;-76
2024/01/06 04:21:06;;;;;;;70.10;63.20;;;;;;;0.49;100.00;96773.95;106267;1275;22544;-75
2024/01/06 04:23:34;;;;;;;71.40;64.20;;;;;;;0.54;100.00;96775.02;106254;1271;22778;-78
2024/01/06 04:26:04;;;;;;;74.10;66.90;;;;;;;0.59;100.00;96774.55;106288;1270;22975;-79
2024/01/06 04:28:32;;;;;;;82.30;73.70;;;;;;;0.61;100.00;96780.61;106242;1270;22543;-75
2024/01/06 04:31:00;;;;;;;73.90;66.60;;;;;;;0.63;100.00;96783.10;106249;1270;22572;-75
2024/01/06 04:33:28;;;;;;;71.80;64.60;;;;;;;0.68;100.00;96785.39;106244;1272;25440;-75
2024/01/06 04:35:57;;;;;;;70.60;63.70;;;;;;;0.72;100.00;96781.58;106268;1273;25308;-75
2024/01/06 04:38:25;;;;;;;68.80;62.00;;;;;;;0.73;100.00;96781.69;106267;1273;22668;-76
2024/01/06 04:40:53;;;;;;;75.30;67.90;;;;;;;0.73;100.00;96786.02;106597;1277;25400;-75
2024/01/06 04:43:21;;;;;;;76.60;69.20;;;;;;;0.72;100.00;96784.87;106272;1261;25425;-75
2024/01/06 04:45:50;;;;;;;74.20;66.70;;;;;;;0.74;100.00;96781.58;106371;1275;22547;-75
2024/01/06 04:48:18;;;;;;;66.50;59.70;;;;;;;0.78;100.00;96789.55;106232;1280;24395;-75
2024/01/06 04:50:46;;;;;;;70.00;62.90;;;;;;;0.78;100.00;96791.73;106198;1277;22552;-75
2024/01/06 04:53:14;;;;;;;69.10;62.00;;;;;;;0.79;100.00;96796.70;106174;1283;22671;-75
2024/01/06 04:55:42;;;;;;;66.50;59.90;;;;;;;0.81;100.00;96799.25;106219;1270;25584;-77
2024/01/06 04:58:10;;;;;;;69.40;62.60;;;;;;;0.82;100.00;96800.09;106355;1276;22547;-75
2024/01/06 05:00:38;;;;;;;72.10;65.00;;;;;;;0.78;100.00;96793.84;106266;1270;22540;-75
2024/01/06 05:03:06;;;;;;;71.40;64.30;;;;;;;0.71;100.00;96796.69;106246;1283;24271;-77
2024/01/06 05:05:34;;;;;;;72.30;65.00;;;;;;;0.72;100.00;96800.29;106251;1269;22553;-76
2024/01/06 05:08:03;;;;;;;72.10;64.90;;;;;;;0.77;100.00;96798.62;106176;1270;22668;-74
2024/01/06 05:10:30;;;;;;;70.40;63.10;;;;;;;0.78;100.00;96801.68;106240;1280;22543;-74
2024/01/06 05:12:58;;;;;;;73.80;66.40;;;;;;;0.79;100.00;96804.66;106160;1268;24412;-75
2024/01/06 05:15:26;;;;;;;76.70;69.20;;;;;;;0.81;100.00;96811.45;106189;1272;22556;-75
2024/01/06 05:17:55;;;;;;;76.70;69.20;;;;;;;0.80;100.00;96809.23;106178;1277;24126;-75
2024/01/06 05:20:23;;;;;;;75.40;67.80;;;;;;;0.83;100.00;96813.90;106083;1283;22495;-77
2024/01/06 05:22:51;;;;;;;73.10;65.40;;;;;;;0.86;100.00;96812.15;106217;1278;24305;-75
2024/01/06 05:25:19;;;;;;;73.90;66.50;;;;;;;0.93;100.00;96810.40;106179;1273;22562;-74
2024/01/06 05:27:47;;;;;;;73.30;66.20;;;;;;;1.00;100.00;96806.81;106164;1268;25506;-75
2024/01/06 05:30:15;;;;;;;73.30;66.20;;;;;;;1.05;100.00;96810.95;106143;1263;22691;-76
2024/01/06 05:32:44;;;;;;;74.00;66.30;;;;;;;1.13;100.00;96811.49;106287;1273;25258;-75
2024/01/06 05:35:11;;;;;;;72.80;65.80;;;;;;;1.17;100.00;96811.60;106154;1281;23167;-74
2024/01/06 05:37:40;;;;;;;71.40;64.40;;;;;;;1.16;100.00;96813.19;106133;1277;23993;-76
2024/01/06 05:40:09;;;;;;;68.20;61.20;;;;;;;1.15;100.00;96816.22;106214;1283;22556;-75
2024/01/06 05:42:37;;;;;;;61.10;55.00;;;;;;;1.14;100.00;96813.78;106252;1273;24355;-75
2024/01/06 05:45:05;;;;;;;61.70;55.60;;;;;;;1.14;100.00;96813.67;106168;1274;25472;-74
2024/01/06 05:47:33;;;;;;;57.50;51.90;;;;;;;1.13;100.00;96815.64;106261;1276;25724;-75
2024/01/06 05:50:01;;;;;;;58.20;52.80;;;;;;;1.17;100.00;96814.36;106282;1261;22556;-77
2024/01/06 05:52:29;;;;;;;56.60;51.10;;;;;;;1.21;100.00;96813.09;106309;1280;24400;-75
2024/01/06 05:54:58;;;;;;;55.20;50.00;;;;;;;1.24;100.00;96814.64;106344;1283;24240;-75
2024/01/06 05:57:26;;;;;;;59.10;53.40;;;;;;;1.26;100.00;96808.90;106240;1284;25600;-76
2024/01/06 05:59:54;;;;;;;58.40;53.00;;;;;;;1.29;100.00;96808.73;106335;1272;22559;-76
2024/01/06 06:02:22;;;;;;;59.10;53.40;;;;;;;1.32;100.00;96807.67;106736;1282;24351;-77
2024/01/06 06:04:50;;;;;;;61.40;55.50;;;;;;;1.34;100.00;96805.45;106701;1276;25562;-76
2024/01/06 06:07:18;;;;;;;60.50;54.40;;;;;;;1.37;100.00;96808.84;106360;1283;22621;-75
2024/01/06 06:09:47;;;;;;;56.00;50.70;;;;;;;1.40;100.00;96813.98;106351;1277;22644;-76
2024/01/06 06:12:16;;;;;;;56.90;51.50;;;;;;;1.43;100.00;96805.08;106425;1277;25556;-77
2024/01/06 06:14:43;;;;;;;56.40;50.70;;;;;;;1.46;100.00;96810.66;106375;1279;23246;-76
2024/01/06 06:17:11;;;;;;;57.20;51.70;;;;;;;1.51;100.00;96812.40;106349;1284;25511;-76
2024/01/06 06:19:39;;;;;;;64.30;58.10;;;;;;;1.52;100.00;96815.05;106264;1284;24276;-75
2024/01/06 06:22:07;;;;;;;66.20;60.00;;;;;;;1.46;100.00;96820.36;106231;1284;25417;-76
2024/01/06 06:24:35;;;;;;;61.40;55.60;;;;;;;1.48;100.00;96817.88;106317;1284;22997;-75
2024/01/06 06:27:03;;;;;;;60.70;54.90;;;;;;;1.51;100.00;96816.80;106320;1284;23935;-76
2024/01/06 06:29:31;;;;;;;63.40;57.30;;;;;;;1.52;100.00;96817.54;106223;1284;22818;-75
2024/01/06 06:31:59;;;;;;;61.80;55.90;;;;;;;1.54;100.00;96818.39;106206;1272;24234;-75
2024/01/06 06:34:27;;;;;;;61.30;55.40;;;;;;;1.58;100.00;96827.16;106152;1283;22556;-76
2024/01/06 06:36:55;;;;;;;58.90;53.20;;;;;;;1.64;100.00;96827.83;106209;1277;22661;-75
2024/01/06 06:39:23;;;;;;;62.60;56.70;;;;;;;1.61;100.00;96830.33;106255;1281;22787;-76
2024/01/06 06:41:51;;;;;;;58.60;53.00;;;;;;;1.58;100.00;96837.19;106310;1275;25638;-74
2024/01/06 06:44:20;;;;;;;57.60;52.00;;;;;;;1.55;100.00;96841.34;106276;1275;22556;-74
2024/01/06 06:46:47;;;;;;;53.20;48.10;;;;;;;1.54;100.00;96839.36;106231;1284;22580;-75
2024/01/06 06:49:15;;;;;;;55.30;50.20;;;;;;;1.56;100.00;96835.81;106337;1273;24213;-76
2024/01/06 06:51:47;;;;;;;57.80;52.30;;;;;;;1.60;100.00;96839.79;106282;1272;23149;-75
2024/01/06 06:54:16;;;;;;;57.20;51.70;;;;;;;1.62;100.00;96842.71;106182;1274;22608;-76
2024/01/06 06:56:44;;;;;;;57.60;52.10;;;;;;;1.65;100.00;96842.29;106271;1275;24226;-76
2024/01/06 06:59:12;;;;;;;58.10;52.40;;;;;;;1.68;100.00;96841.53;106198;1281;24219;-76
2024/01/06 07:01:40;;;;;;;61.40;55.20;;;;;;;1.72;100.00;96840.58;106213;1266;22541;-76
2024/01/06 07:04:08;;;;;;;55.70;50.30;;;;;;;1.77;100.00;96847.64;106504;1280;25455;-77
2024/01/06 07:06:36;;;;;;;58.40;52.90;;;;;;;1.80;100.00;96845.88;106223;1260;22486;-76
2024/01/06 07:09:04;;;;;;;61.20;55.30;;;;;;;1.82;100.00;96848.90;106225;1272;25326;-77
2024/01/06 07:11:33;;;;;;;63.10;56.90;;;;;;;1.86;100.00;96848.95;106169;1273;22562;-76
2024/01/06 07:14:01;;;;;;;63.10;57.10;;;;;;;1.87;100.00;96840.19;106276;1283;24238;-76
2024/01/06 07:16:29;;;;;;;68.40;62.00;;;;;;;1.89;100.00;96841.08;106589;1283;25337;-76
2024/01/06 07:18:57;;;;;;;68.40;62.30;;;;;;;1.85;100.00;96835.19;106247;1271;25246;-77
2024/01/06 07:21:25;;;;;;;71.00;64.50;;;;;;;1.85;100.00;96840.84;106304;1282;22701;-76
2024/01/06 07:23:53;;;;;;;67.50;60.80;;;;;;;1.87;100.00;96844.38;106459;1282;22555;-76
2024/01/06 07:26:21;;;;;;;72.50;65.80;;;;;;;1.92;100.00;96845.75;106127;1283;22783;-76
2024/01/06 07:28:49;;;;;;;72.00;65.50;;;;;;;1.91;100.00;96839.98;106241;1278;22977;-76
2024/01/06 07:31:17;;;;;;;72.20;65.60;;;;;;;1.93;100.00;96842.72;106282;1272;25436;-75
2024/01/06 07:33:45;;;;;;;75.10;67.80;;;;;;;1.90;100.00;96847.56;106305;1277;22974;-75
2024/01/06 07:36:13;;;;;;;79.70;72.50;;;;;;;1.86;100.00;96846.55;106268;1283;22631;-75
2024/01/06 07:38:41;;;;;;;75.40;68.00;;;;;;;1.83;100.00;96852.63;106203;1270;24448;-75
2024/01/06 07:41:09;;;;;;;73.50;66.50;;;;;;;1.80;100.00;96849.49;106243;1269;23011;-74
2024/01/06 07:43:37;;;;;;;73.80;66.80;;;;;;;1.81;100.00;96847.05;106263;1272;25388;-74
2024/01/06 07:46:06;;;;;;;76.70;68.80;;;;;;;1.85;100.00;96844.60;106253;1270;23447;-75
2024/01/06 07:48:35;;;;;;;66.40;60.10;;;;;;;1.86;100.00;96840.66;106310;1280;24262;-75
2024/01/06 07:51:04;;;;;;;60.70;55.10;;;;;;;1.88;100.00;96842.74;106313;1273;22547;-75
2024/01/06 07:53:33;;;;;;;58.80;53.10;;;;;;;1.92;100.00;96850.59;106224;1277;25379;-76
2024/01/06 07:56:01;;;;;;;65.00;59.20;;;;;;;1.97;100.00;96852.13;106351;1273;22576;-76
2024/01/06 07:58:29;;;;;;;75.20;68.50;;;;;;;2.00;100.00;96853.97;106297;1283;22621;-76
2024/01/06 08:00:57;;;;;;;81.30;73.20;;;;;;;2.03;100.00;96859.98;106320;1283;23943;-76
2024/01/06 08:03:25;;;;;;;78.00;70.60;;;;;;;2.08;100.00;96862.58;106315;1269;24031;-77
2024/01/06 08:05:54;;;;;;;77.30;69.80;;;;;;;2.15;100.00;96861.91;106275;1274;22616;-76
2024/01/06 08:08:22;;;;;;;69.00;62.50;;;;;;;2.17;100.00;96862.39;106182;1261;22621;-78
2024/01/06 08:10:50;;;;;;;68.80;62.30;;;;;;;2.18;100.00;96858.92;106666;1283;22599;-78
2024/01/06 08:13:18;;;;;;;65.80;59.30;;;;;;;2.20;100.00;96863.91;106367;1273;22661;-78
2024/01/06 08:15:46;;;;;;;60.80;55.00;;;;;;;2.22;100.00;96866.20;106293;1273;22548;-77
2024/01/06 08:18:14;;;;;;;62.50;56.70;;;;;;;2.21;100.00;96868.48;106570;1270;25659;-77
2024/01/06 08:20:42;;;;;;;66.30;60.40;;;;;;;2.19;100.00;96873.11;106288;1283;24713;-77
2024/01/06 08:23:10;;;;;;;72.30;65.10;;;;;;;2.20;100.00;96881.19;106455;1272;22594;-78
2024/01/06 08:25:38;;;;;;;102.10;77.50;;;;;;;2.24;100.00;96881.20;106480;1270;25376;-78
2024/01/06 08:28:06;;;;;;;112.20;81.90;;;;;;;2.30;100.00;96890.58;106445;1283;22662;-78
2024/01/06 08:30:34;;;;;;;104.90;79.00;;;;;;;2.35;100.00;96889.45;106487;1276;22546;-77
2024/01/06 08:33:02;;;;;;;74.90;67.50;;;;;;;2.42;100.00;96890.34;106547;1270;22536;-77
2024/01/06 08:35:31;;;;;;;70.10;63.50;;;;;;;2.50;100.00;96898.19;106204;1274;25456;-78
2024/01/06 08:38:00;;;;;;;65.90;59.70;;;;;;;2.56;100.00;96902.78;106281;1272;22963;-78
2024/01/06 08:40:31;;;;;;;65.20;59.20;;;;;;;2.58;100.00;96903.16;106138;1283;26637;-77
2024/01/06 08:42:59;;;;;;;65.10;59.10;;;;;;;2.58;100.00;96903.73;106222;1273;24338;-77
2024/01/06 08:45:27;;;;;;;59.50;54.10;;;;;;;2.59;100.00;96903.95;106289;1268;22553;-78
2024/01/06 08:47:56;;;;;;;60.40;54.70;;;;;;;2.66;100.00;96905.90;106240;1276;22576;-78
2024/01/06 08:50:24;;;;;;;67.40;60.90;;;;;;;2.73;100.00;96903.63;106209;1268;22570;-77
2024/01/06 08:52:52;;;;;;;74.10;66.40;;;;;;;2.79;100.00;96903.40;106187;1283;24364;-77
2024/01/06 08:55:20;;;;;;;83.60;75.10;;;;;;;2.87;100.00;96895.80;106283;1283;22980;-78
2024/01/06 08:57:48;;;;;;;93.70;82.70;;;;;;;2.98;100.00;96892.94;106534;1282;25375;-78
2024/01/06 09:00:17;;;;;;;117.90;90.50;;;;;;;3.09;100.00;96895.54;106291;1282;22539;-79
2024/01/06 09:02:45;;;;;;;84.10;75.80;;;;;;;3.18;100.00;96899.75;106176;1274;22570;-76
2024/01/06 09:05:13;;;;;;;74.40;67.40;;;;;;;3.23;100.00;96902.90;106267;1283;22544;-76
2024/01/06 09:07:41;;;;;;;72.50;65.30;;;;;;;3.23;100.00;96902.65;106269;1277;25445;-76
2024/01/06 09:10:09;;;;;;;73.10;66.20;;;;;;;3.27;100.00;96906.99;106253;1270;25265;-76
2024/01/06 09:12:37;;;;;;;75.30;68.30;;;;;;;3.32;100.00;96907.54;106245;1280;22769;-76
2024/01/06 09:15:06;;;;;;;78.90;71.20;;;;;;;3.41;100.00;96902.64;106237;1274;22670;-77
2024/01/06 09:17:34;;;;;;;81.00;73.60;;;;;;;3.42;100.00;96902.15;106243;1283;22540;-77
2024/01/06 09:20:03;;;;;;;79.50;72.50;;;;;;;3.43;100.00;96900.33;106297;1269;22492;-78
2024/01/06 09:22:32;;;;;;;83.50;75.70;;;;;;;3.46;100.00;96897.38;106602;1270;25256;-77
2024/01/06 09:25:00;;;;;;;80.70;73.30;;;;;;;3.48;100.00;96895.88;106244;1283;23390;-77
2024/01/06 09:27:28;;;;;;;77.00;69.60;;;;;;;3.53;100.00;96896.92;106306;1283;25442;-78
2024/01/06 09:29:56;;;;;;;69.60;63.00;;;;;;;3.59;100.00;96899.52;106584;1268;25343;-78
2024/01/06 09:32:24;;;;;;;70.70;63.70;;;;;;;3.67;100.00;96900.05;106528;1283;22562;-78
2024/01/06 09:34:52;;;;;;;68.70;61.90;;;;;;;3.74;100.00;96903.14;106453;1280;22672;-78
2024/01/06 09:37:20;;;;;;;68.00;61.60;;;;;;;3.81;100.00;96901.91;106516;1271;22620;-79
2024/01/06 09:39:49;;;;;;;65.00;58.90;;;;;;;3.84;100.00;96900.76;106578;1274;25267;-77
2024/01/06 09:42:17;;;;;;;67.10;60.80;;;;;;;3.88;100.00;96896.30;106229;1269;22546;-76
2024/01/06 09:44:45;;;;;;;64.20;58.00;;;;;;;3.90;100.00;96895.60;106328;1283;22548;-77
2024/01/06 09:47:16;;;;;;;66.00;59.70;;;;;;;3.92;100.00;96894.27;106246;1273;22550;-78
2024/01/06 09:49:50;;;;;;;66.20;59.80;;;;;;;3.93;100.00;96890.41;106634;1283;25583;-78
2024/01/06 09:52:22;;;;;;;67.40;60.70;;;;;;;3.98;100.00;96891.23;106017;1273;175107;-78
2024/01/06 09:54:53;;;;;;;68.90;62.10;;;;;;;3.96;100.00;96894.45;106546;1270;22602;-79
2024/01/06 09:57:23;;;;;;;72.80;65.80;;;;;;;3.95;100.00;96892.58;106622;1273;24226;-78
2024/01/06 09:59:52;;;;;;;69.30;62.40;;;;;;;3.96;100.00;96894.65;106455;1274;22803;-76
2024/01/06 10:02:22;;;;;;;67.20;60.70;;;;;;;3.99;100.00;96895.09;106352;1283;22743;-76
2024/01/06 10:04:51;;;;;;;63.70;57.70;;;;;;;4.01;100.00;96895.84;106242;1268;24057;-78
2024/01/06 10:07:19;;;;;;;67.30;60.70;;;;;;;4.02;100.00;96898.00;106314;1283;25312;-78
2024/01/06 10:09:47;;;;;;;68.30;62.00;;;;;;;4.04;100.00;96894.56;106610;1271;25252;-77
2024/01/06 10:12:15;;;;;;;68.70;62.20;;;;;;;4.06;100.00;96893.38;106402;1283;22589;-77
2024/01/06 10:14:43;;;;;;;70.70;64.10;;;;;;;4.05;100.00;96893.83;106343;1277;25371;-77
2024/01/06 10:17:12;;;;;;;73.00;66.50;;;;;;;4.00;100.00;96893.86;106618;1273;22780;-78
2024/01/06 10:19:40;;;;;;;71.30;64.80;;;;;;;3.96;100.00;96900.45;106598;1277;23316;-78
2024/01/06 10:22:09;;;;;;;69.00;62.70;;;;;;;3.92;100.00;96896.23;106356;1283;25152;-78
2024/01/06 10:24:37;;;;;;;68.30;62.10;;;;;;;3.88;100.00;96896.84;106548;1270;23907;-79
2024/01/06 10:27:06;;;;;;;70.30;63.30;;;;;;;3.88;100.00;96898.27;106178;1267;22595;-78
2024/01/06 10:29:34;;;;;;;72.10;65.40;;;;;;;3.89;100.00;96896.52;106293;1283;24343;-77
2024/01/06 10:32:02;;;;;;;75.80;68.70;;;;;;;3.92;100.00;96898.36;106339;1283;23153;-76
2024/01/06 10:34:32;;;;;;;77.80;70.40;;;;;;;3.93;100.00;96898.30;106257;1271;24722;-77
2024/01/06 10:37:01;;;;;;;79.50;71.90;;;;;;;3.90;100.00;96894.59;106345;1282;24448;-77
2024/01/06 10:39:29;;;;;;;79.20;71.30;;;;;;;3.88;100.00;96898.60;106744;1282;23316;-77
2024/01/06 10:41:58;;;;;;;82.80;74.90;;;;;;;3.93;100.00;96892.00;106270;1283;25309;-77
2024/01/06 10:44:28;;;;;;;76.90;69.50;;;;;;;3.97;100.00;96894.59;106397;1270;22602;-78
2024/01/06 10:46:58;;;;;;;73.00;66.00;;;;;;;3.97;100.00;96897.52;106700;1280;22549;-76
2024/01/06 10:49:27;;;;;;;77.50;70.60;;;;;;;3.98;100.00;96894.36;106473;1283;22601;-77
2024/01/06 10:51:56;;;;;;;76.90;69.80;;;;;;;3.97;100.00;96894.44;106296;1268;22556;-78
2024/01/06 10:54:24;;;;;;;75.90;69.20;;;;;;;3.98;100.00;96889.73;106336;1274;22809;-77
2024/01/06 10:56:54;;;;;;;73.70;66.70;;;;;;;3.97;100.00;96892.77;106334;1268;23947;-77
2024/01/06 10:59:24;;;;;;;69.90;63.40;;;;;;;3.96;100.00;96892.63;106248;1283;22544;-78
2024/01/06 11:01:53;;;;;;;65.90;60.00;;;;;;;3.95;100.00;96891.57;106379;1283;24391;-77
2024/01/06 11:04:23;;;;;;;67.70;61.50;;;;;;;3.98;100.00;96894.31;106351;1280;22543;-77
2024/01/06 11:06:51;;;;;;;77.00;70.20;;;;;;;4.00;100.00;96886.36;106518;1271;26529;-78
2024/01/06 11:09:19;;;;;;;90.50;82.00;;;;;;;4.03;100.00;96884.23;106594;1282;22547;-77
2024/01/06 11:11:48;;;;;;;100.20;90.00;;;;;;;4.05;100.00;96881.08;107249;1282;22546;-77
2024/01/06 11:14:33;;;;;;;86.20;78.20;;;;;;;4.10;100.00;96890.04;106437;1282;24106;-78